Flight Track Log - Related Links

Times and Time Zones

All times are in EDT time to prevent confusion due to time zone crossing. See the N724AE flight status page for this flight to view local times or setup timezone preferences in your user account.

Time Position Orientation Groundspeed Altitude Reporting Facility
EDT Latitude Longitude Course Direction KTS MPH feet Rate Location/Type
Mon 03:33:21 PM 33.9475 -98.4950 162° South 161 185 2,000  Level Fort Center
Mon 03:34:04 PM 33.9142 -98.4822 162° South 176 203 2,500 1,175 Climbing Fort Center
Mon 03:34:58 PM 33.8789 -98.4417 136° Southeast 199 229 3,900 2,452 Climbing Fort Center
Mon 03:35:59 PM 33.8503 -98.3739 117° Southeast 226 260 7,200 2,870 Climbing Fort Center
Mon 03:36:30 PM 33.8422 -98.3464 109° East 234 269 8,300 2,176 Climbing Fort Center
Mon 03:37:30 PM 33.7928 -98.2633 126° Southeast 266 306 10,500 1,650 Climbing Fort Center
Mon 03:38:30 PM 33.7389 -98.1778 127° Southeast 298 343 11,600 1,100 Climbing Fort Center
Mon 03:39:30 PM 33.6789 -98.0825 127° Southeast 332 382 12,700 950 Climbing Fort Center
Mon 03:40:30 PM 33.6128 -97.9872 130° Southeast 361 415 13,500 650 Climbing Fort Center
Mon 03:41:30 PM 33.5464 -97.8869 128° Southeast 377 434 14,000 -200 Climbing Fort Center
Mon 03:42:30 PM 33.4861 -97.7944 128° Southeast 385 443 13,100 -1,350 Descending Fort Center
Mon 03:43:30 PM 33.4156 -97.6947 130° Southeast 373 429 11,300 -1,350 Descending Fort Center
Mon 03:44:30 PM 33.3675 -97.6250 130° Southeast 326 375 10,400 -1,250 Descending Fort Center
Mon 03:45:30 PM 33.3114 -97.5575 135° Southeast 289 333 8,800 -1,550 Descending Fort Center
Mon 03:46:30 PM 33.2822 -97.4681 111° Southeast 270 311 7,300 -1,200 Descending Fort Center
Mon 03:47:30 PM 33.2572 -97.3936 112° Southeast 259 298 6,400 -1,000 Descending Fort Center
Mon 03:48:30 PM 33.2258 -97.3042 113° Southeast 254 292 5,300 -700 Descending Fort Center
Mon 03:49:30 PM 33.1839 -97.2497 133° Southeast 254 292 5,000 -400 Descending Fort Center
Mon 03:50:30 PM 33.1339 -97.1803 131° Southeast 255 293 4,500 -600 Descending Fort Center
Mon 03:51:30 PM 33.0897 -97.1258 134° Southeast 255 293 3,800 -828 Descending Fort Center
Mon 03:52:26 PM 33.0333 -97.0667 139° Southeast 238 274 2,900 -1,041 Descending Dallas TRACON
Mon 03:53:31 PM 32.9667 -97.0500 168° South 168 193 1,700 -912 Descending Dallas TRACON
Mon 03:54:31 PM 32.9333 -97.0500 180° South 135 155 1,000 -700 Descending Dallas TRACON

Login

Don't have an account? Register now (free) for customized features, flight alerts, and more!